sensor_id;sensor_type;location;lat;lon;timestamp;pressure;altitude;pressure_sealevel;temperature
32039;BMP280;18549;42.286;22.688;2024-01-16T00:02:09;94286.06;;;4.13
32039;BMP280;18549;42.286;22.688;2024-01-16T00:04:36;94297.63;;;4.11
32039;BMP280;18549;42.286;22.688;2024-01-16T00:07:04;94297.50;;;4.13
32039;BMP280;18549;42.286;22.688;2024-01-16T00:09:33;94293.50;;;4.12
32039;BMP280;18549;42.286;22.688;2024-01-16T00:12:01;94301.03;;;4.09
32039;BMP280;18549;42.286;22.688;2024-01-16T00:14:29;94295.53;;;4.05
32039;BMP280;18549;42.286;22.688;2024-01-16T00:16:57;94297.88;;;4.07
32039;BMP280;18549;42.286;22.688;2024-01-16T00:19:25;94293.16;;;4.04
32039;BMP280;18549;42.286;22.688;2024-01-16T00:21:55;94295.44;;;4.07
32039;BMP280;18549;42.286;22.688;2024-01-16T00:24:22;94306.81;;;4.08
32039;BMP280;18549;42.286;22.688;2024-01-16T00:26:50;94303.75;;;4.04
32039;BMP280;18549;42.286;22.688;2024-01-16T00:29:25;94315.41;;;4.01
32039;BMP280;18549;42.286;22.688;2024-01-16T00:31:52;94320.03;;;4.05
32039;BMP280;18549;42.286;22.688;2024-01-16T00:34:19;94320.75;;;4.07
32039;BMP280;18549;42.286;22.688;2024-01-16T00:36:46;94309.88;;;4.11
32039;BMP280;18549;42.286;22.688;2024-01-16T00:39:12;94310.75;;;4.10
32039;BMP280;18549;42.286;22.688;2024-01-16T00:41:39;94307.59;;;4.08
32039;BMP280;18549;42.286;22.688;2024-01-16T00:44:06;94308.66;;;4.04
32039;BMP280;18549;42.286;22.688;2024-01-16T00:46:36;94299.56;;;4.06
32039;BMP280;18549;42.286;22.688;2024-01-16T00:49:04;94301.91;;;4.08
32039;BMP280;18549;42.286;22.688;2024-01-16T00:51:34;94318.81;;;3.98
32039;BMP280;18549;42.286;22.688;2024-01-16T00:54:02;94328.19;;;3.92
32039;BMP280;18549;42.286;22.688;2024-01-16T00:56:30;94329.84;;;3.78
32039;BMP280;18549;42.286;22.688;2024-01-16T00:58:59;94324.63;;;3.84
32039;BMP280;18549;42.286;22.688;2024-01-16T01:01:30;94334.84;;;3.90
32039;BMP280;18549;42.286;22.688;2024-01-16T01:03:58;94340.97;;;3.97
32039;BMP280;18549;42.286;22.688;2024-01-16T01:06:26;94338.25;;;4.01
32039;BMP280;18549;42.286;22.688;2024-01-16T01:08:54;94333.88;;;4.06
32039;BMP280;18549;42.286;22.688;2024-01-16T01:11:21;94335.38;;;4.09
32039;BMP280;18549;42.286;22.688;2024-01-16T01:13:48;94322.28;;;4.08
32039;BMP280;18549;42.286;22.688;2024-01-16T01:16:16;94329.25;;;4.02
32039;BMP280;18549;42.286;22.688;2024-01-16T01:18:44;94326.88;;;4.00
32039;BMP280;18549;42.286;22.688;2024-01-16T01:21:13;94322.50;;;4.05
32039;BMP280;18549;42.286;22.688;2024-01-16T01:23:39;94326.78;;;4.16
32039;BMP280;18549;42.286;22.688;2024-01-16T01:26:10;94335.22;;;4.24
32039;BMP280;18549;42.286;22.688;2024-01-16T01:28:41;94333.28;;;4.29
32039;BMP280;18549;42.286;22.688;2024-01-16T01:31:10;94332.16;;;4.34
32039;BMP280;18549;42.286;22.688;2024-01-16T01:33:40;94329.25;;;4.42
32039;BMP280;18549;42.286;22.688;2024-01-16T01:36:14;94319.94;;;4.47
32039;BMP280;18549;42.286;22.688;2024-01-16T01:38:41;94322.41;;;4.47
32039;BMP280;18549;42.286;22.688;2024-01-16T01:41:08;94319.88;;;4.48
32039;BMP280;18549;42.286;22.688;2024-01-16T01:43:37;94321.25;;;4.52
32039;BMP280;18549;42.286;22.688;2024-01-16T01:46:13;94316.16;;;4.55
32039;BMP280;18549;42.286;22.688;2024-01-16T01:48:41;94302.41;;;4.53
32039;BMP280;18549;42.286;22.688;2024-01-16T01:51:10;94302.41;;;4.53
32039;BMP280;18549;42.286;22.688;2024-01-16T01:53:44;94312.94;;;4.55
32039;BMP280;18549;42.286;22.688;2024-01-16T01:56:14;94320.38;;;4.53
32039;BMP280;18549;42.286;22.688;2024-01-16T01:58:45;94305.66;;;4.53
32039;BMP280;18549;42.286;22.688;2024-01-16T02:01:13;94321.53;;;4.48
32039;BMP280;18549;42.286;22.688;2024-01-16T02:03:45;94336.41;;;4.45
32039;BMP280;18549;42.286;22.688;2024-01-16T02:06:14;94332.47;;;4.42
32039;BMP280;18549;42.286;22.688;2024-01-16T02:08:43;94333.19;;;4.44
32039;BMP280;18549;42.286;22.688;2024-01-16T02:11:12;94321.69;;;4.45
32039;BMP280;18549;42.286;22.688;2024-01-16T02:13:40;94321.63;;;4.46
32039;BMP280;18549;42.286;22.688;2024-01-16T02:18:33;94335.12;;;4.39
32039;BMP280;18549;42.286;22.688;2024-01-16T02:21:01;94346.22;;;4.45
32039;BMP280;18549;42.286;22.688;2024-01-16T02:23:35;94343.63;;;4.48
32039;BMP280;18549;42.286;22.688;2024-01-16T02:26:03;94349.88;;;4.52
32039;BMP280;18549;42.286;22.688;2024-01-16T02:28:29;94348.13;;;4.54
32039;BMP280;18549;42.286;22.688;2024-01-16T02:30:56;94352.97;;;4.55
32039;BMP280;18549;42.286;22.688;2024-01-16T02:33:23;94353.94;;;4.53
32039;BMP280;18549;42.286;22.688;2024-01-16T02:35:50;94360.50;;;4.52
32039;BMP280;18549;42.286;22.688;2024-01-16T02:38:17;94366.19;;;4.53
32039;BMP280;18549;42.286;22.688;2024-01-16T02:40:48;94371.88;;;4.53
32039;BMP280;18549;42.286;22.688;2024-01-16T02:43:14;94379.88;;;4.57
32039;BMP280;18549;42.286;22.688;2024-01-16T02:45:43;94380.72;;;4.56
32039;BMP280;18549;42.286;22.688;2024-01-16T02:48:09;94391.09;;;4.47
32039;BMP280;18549;42.286;22.688;2024-01-16T02:50:37;94388.81;;;4.44
32039;BMP280;18549;42.286;22.688;2024-01-16T02:53:05;94401.44;;;4.38
32039;BMP280;18549;42.286;22.688;2024-01-16T02:55:31;94389.53;;;4.32
32039;BMP280;18549;42.286;22.688;2024-01-16T02:58:03;94392.00;;;4.32
32039;BMP280;18549;42.286;22.688;2024-01-16T03:00:32;94400.91;;;4.33
32039;BMP280;18549;42.286;22.688;2024-01-16T03:02:59;94391.63;;;4.38
32039;BMP280;18549;42.286;22.688;2024-01-16T03:05:30;94390.31;;;4.46
32039;BMP280;18549;42.286;22.688;2024-01-16T03:07:57;94399.66;;;4.54
32039;BMP280;18549;42.286;22.688;2024-01-16T03:10:24;94401.13;;;4.56
32039;BMP280;18549;42.286;22.688;2024-01-16T03:12:52;94401.69;;;4.61
32039;BMP280;18549;42.286;22.688;2024-01-16T03:15:22;94407.44;;;4.60
32039;BMP280;18549;42.286;22.688;2024-01-16T03:17:48;94414.72;;;4.61
32039;BMP280;18549;42.286;22.688;2024-01-16T03:20:16;94416.22;;;4.64
32039;BMP280;18549;42.286;22.688;2024-01-16T03:22:43;94418.56;;;4.65
32039;BMP280;18549;42.286;22.688;2024-01-16T03:25:11;94418.41;;;4.68
32039;BMP280;18549;42.286;22.688;2024-01-16T03:27:40;94428.09;;;4.70
32039;BMP280;18549;42.286;22.688;2024-01-16T03:30:08;94432.16;;;4.71
32039;BMP280;18549;42.286;22.688;2024-01-16T03:32:38;94431.00;;;4.76
32039;BMP280;18549;42.286;22.688;2024-01-16T03:35:06;94436.00;;;4.75
32039;BMP280;18549;42.286;22.688;2024-01-16T03:37:34;94432.59;;;4.77
32039;BMP280;18549;42.286;22.688;2024-01-16T03:40:02;94448.53;;;4.84
32039;BMP280;18549;42.286;22.688;2024-01-16T03:42:29;94447.56;;;4.87
32039;BMP280;18549;42.286;22.688;2024-01-16T03:44:58;94450.97;;;4.84
32039;BMP280;18549;42.286;22.688;2024-01-16T03:47:25;94459.03;;;4.86
32039;BMP280;18549;42.286;22.688;2024-01-16T03:49:55;94460.78;;;4.84
32039;BMP280;18549;42.286;22.688;2024-01-16T03:52:24;94474.31;;;4.77
32039;BMP280;18549;42.286;22.688;2024-01-16T03:54:53;94468.00;;;4.73
32039;BMP280;18549;42.286;22.688;2024-01-16T03:57:20;94478.00;;;4.70
32039;BMP280;18549;42.286;22.688;2024-01-16T03:59:48;94487.81;;;4.70
32039;BMP280;18549;42.286;22.688;2024-01-16T04:02:15;94486.22;;;4.69
32039;BMP280;18549;42.286;22.688;2024-01-16T04:04:43;94479.75;;;4.68
32039;BMP280;18549;42.286;22.688;2024-01-16T04:07:12;94493.41;;;4.72
32039;BMP280;18549;42.286;22.688;2024-01-16T04:09:53;94502.34;;;4.73
32039;BMP280;18549;42.286;22.688;2024-01-16T04:12:20;94502.94;;;4.77
32039;BMP280;18549;42.286;22.688;2024-01-16T04:14:47;94512.59;;;4.80
32039;BMP280;18549;42.286;22.688;2024-01-16T04:17:14;94510.03;;;4.81
32039;BMP280;18549;42.286;22.688;2024-01-16T04:19:42;94519.72;;;4.84
32039;BMP280;18549;42.286;22.688;2024-01-16T04:22:09;94521.19;;;4.87
32039;BMP280;18549;42.286;22.688;2024-01-16T04:24:37;94521.63;;;4.79
32039;BMP280;18549;42.286;22.688;2024-01-16T04:27:03;94523.22;;;4.80
32039;BMP280;18549;42.286;22.688;2024-01-16T04:29:31;94524.78;;;4.81
32039;BMP280;18549;42.286;22.688;2024-01-16T04:32:13;94518.31;;;4.80
32039;BMP280;18549;42.286;22.688;2024-01-16T04:34:39;94523.41;;;4.77
32039;BMP280;18549;42.286;22.688;2024-01-16T04:37:08;94521.97;;;4.73
32039;BMP280;18549;42.286;22.688;2024-01-16T04:39:44;94528.31;;;4.77
32039;BMP280;18549;42.286;22.688;2024-01-16T04:42:13;94533.53;;;4.85
32039;BMP280;18549;42.286;22.688;2024-01-16T04:44:39;94543.28;;;4.87
32039;BMP280;18549;42.286;22.688;2024-01-16T04:47:09;94543.03;;;4.91
32039;BMP280;18549;42.286;22.688;2024-01-16T04:49:36;94546.19;;;4.93
32039;BMP280;18549;42.286;22.688;2024-01-16T04:52:04;94546.25;;;4.92
32039;BMP280;18549;42.286;22.688;2024-01-16T04:54:31;94564.50;;;4.88
32039;BMP280;18549;42.286;22.688;2024-01-16T04:56:59;94563.72;;;4.87
32039;BMP280;18549;42.286;22.688;2024-01-16T04:59:29;94570.28;;;4.87
32039;BMP280;18549;42.286;22.688;2024-01-16T05:01:57;94575.97;;;4.87
32039;BMP280;18549;42.286;22.688;2024-01-16T05:04:24;94583.41;;;4.86
32039;BMP280;18549;42.286;22.688;2024-01-16T05:06:52;94595.88;;;4.83
32039;BMP280;18549;42.286;22.688;2024-01-16T05:09:22;94600.59;;;4.86
32039;BMP280;18549;42.286;22.688;2024-01-16T05:11:50;94601.22;;;4.89
32039;BMP280;18549;42.286;22.688;2024-01-16T05:14:19;94604.13;;;4.82
32039;BMP280;18549;42.286;22.688;2024-01-16T05:16:50;94605.25;;;4.76
32039;BMP280;18549;42.286;22.688;2024-01-16T05:19:17;94604.66;;;4.73
32039;BMP280;18549;42.286;22.688;2024-01-16T05:21:44;94611.06;;;4.75
32039;BMP280;18549;42.286;22.688;2024-01-16T05:24:13;94615.78;;;4.78
32039;BMP280;18549;42.286;22.688;2024-01-16T05:26:40;94627.97;;;4.80
32039;BMP280;18549;42.286;22.688;2024-01-16T05:29:07;94632.97;;;4.78
32039;BMP280;18549;42.286;22.688;2024-01-16T05:31:40;94632.00;;;4.81
32039;BMP280;18549;42.286;22.688;2024-01-16T05:34:10;94638.25;;;4.86
32039;BMP280;18549;42.286;22.688;2024-01-16T05:36:37;94645.44;;;4.89
32039;BMP280;18549;42.286;22.688;2024-01-16T05:39:04;94647.09;;;4.89
32039;BMP280;18549;42.286;22.688;2024-01-16T05:41:32;94654.88;;;4.95
32039;BMP280;18549;42.286;22.688;2024-01-16T05:44:00;94659.63;;;4.98
32039;BMP280;18549;42.286;22.688;2024-01-16T05:46:28;94662.94;;;4.97
32039;BMP280;18549;42.286;22.688;2024-01-16T05:48:57;94677.62;;;4.98
32039;BMP280;18549;42.286;22.688;2024-01-16T05:51:23;94685.84;;;4.97
32039;BMP280;18549;42.286;22.688;2024-01-16T05:53:52;94699.62;;;5.00
32039;BMP280;18549;42.286;22.688;2024-01-16T05:56:22;94706.28;;;4.98
32039;BMP280;18549;42.286;22.688;2024-01-16T05:58:49;94716.97;;;4.97
32039;BMP280;18549;42.286;22.688;2024-01-16T06:01:17;94715.66;;;4.92
32039;BMP280;18549;42.286;22.688;2024-01-16T06:03:45;94724.78;;;4.90
32039;BMP280;18549;42.286;22.688;2024-01-16T06:06:15;94740.47;;;4.87
32039;BMP280;18549;42.286;22.688;2024-01-16T06:08:42;94741.06;;;4.91
32039;BMP280;18549;42.286;22.688;2024-01-16T06:11:09;94755.00;;;4.90
32039;BMP280;18549;42.286;22.688;2024-01-16T06:13:40;94746.88;;;4.90
32039;BMP280;18549;42.286;22.688;2024-01-16T06:16:09;94759.94;;;4.90
32039;BMP280;18549;42.286;22.688;2024-01-16T06:18:38;94775.28;;;4.93
32039;BMP280;18549;42.286;22.688;2024-01-16T06:21:06;94779.25;;;4.96
32039;BMP280;18549;42.286;22.688;2024-01-16T06:23:40;94788.59;;;4.90
32039;BMP280;18549;42.286;22.688;2024-01-16T06:26:07;94797.63;;;4.89
32039;BMP280;18549;42.286;22.688;2024-01-16T06:28:35;94804.91;;;4.91
32039;BMP280;18549;42.286;22.688;2024-01-16T06:31:04;94805.47;;;4.95
32039;BMP280;18549;42.286;22.688;2024-01-16T06:33:34;94807.75;;;4.98
32039;BMP280;18549;42.286;22.688;2024-01-16T06:36:02;94819.06;;;5.01
32039;BMP280;18549;42.286;22.688;2024-01-16T06:38:30;94822.94;;;5.05
32039;BMP280;18549;42.286;22.688;2024-01-16T06:40:59;94839.06;;;5.09
32039;BMP280;18549;42.286;22.688;2024-01-16T06:43:30;94862.78;;;5.10
32039;BMP280;18549;42.286;22.688;2024-01-16T06:45:57;94868.22;;;5.15
32039;BMP280;18549;42.286;22.688;2024-01-16T06:48:24;94887.00;;;5.16
32039;BMP280;18549;42.286;22.688;2024-01-16T06:50:52;94886.22;;;5.15
32039;BMP280;18549;42.286;22.688;2024-01-16T06:53:21;94898.34;;;5.18
32039;BMP280;18549;42.286;22.688;2024-01-16T06:55:48;94905.53;;;5.21
32039;BMP280;18549;42.286;22.688;2024-01-16T06:58:16;94913.53;;;5.24
32039;BMP280;18549;42.286;22.688;2024-01-16T07:00:44;94915.84;;;5.27
32039;BMP280;18549;42.286;22.688;2024-01-16T07:03:12;94918.28;;;5.27
32039;BMP280;18549;42.286;22.688;2024-01-16T07:05:40;94918.38;;;5.26
32039;BMP280;18549;42.286;22.688;2024-01-16T07:08:08;94926.53;;;5.26
32039;BMP280;18549;42.286;22.688;2024-01-16T07:10:36;94937.12;;;5.27
32039;BMP280;18549;42.286;22.688;2024-01-16T07:13:04;94933.19;;;5.24
32039;BMP280;18549;42.286;22.688;2024-01-16T07:15:34;94946.34;;;5.24
32039;BMP280;18549;42.286;22.688;2024-01-16T07:18:02;94961.25;;;5.21
32039;BMP280;18549;42.286;22.688;2024-01-16T07:20:29;94960.44;;;5.20
32039;BMP280;18549;42.286;22.688;2024-01-16T07:23:00;94967.97;;;5.17
32039;BMP280;18549;42.286;22.688;2024-01-16T07:25:34;94982.00;;;5.15
32039;BMP280;18549;42.286;22.688;2024-01-16T07:28:03;94992.72;;;5.14
32039;BMP280;18549;42.286;22.688;2024-01-16T07:30:37;95000.31;;;5.10
32039;BMP280;18549;42.286;22.688;2024-01-16T07:33:04;95002.78;;;5.10
32039;BMP280;18549;42.286;22.688;2024-01-16T07:35:31;95011.72;;;5.11
32039;BMP280;18549;42.286;22.688;2024-01-16T07:37:58;95025.50;;;5.13
32039;BMP280;18549;42.286;22.688;2024-01-16T07:40:26;95032.72;;;5.16
32039;BMP280;18549;42.286;22.688;2024-01-16T07:42:53;95036.84;;;5.16
32039;BMP280;18549;42.286;22.688;2024-01-16T07:45:21;95055.56;;;5.18
32039;BMP280;18549;42.286;22.688;2024-01-16T07:47:50;95063.56;;;5.22
32039;BMP280;18549;42.286;22.688;2024-01-16T07:50:16;95067.91;;;5.17
32039;BMP280;18549;42.286;22.688;2024-01-16T07:52:43;95074.72;;;5.12
32039;BMP280;18549;42.286;22.688;2024-01-16T07:55:12;95078.53;;;5.17
32039;BMP280;18549;42.286;22.688;2024-01-16T07:57:40;95086.78;;;5.16
32039;BMP280;18549;42.286;22.688;2024-01-16T08:00:08;95093.31;;;5.16
32039;BMP280;18549;42.286;22.688;2024-01-16T08:02:37;95103.09;;;5.17
32039;BMP280;18549;42.286;22.688;2024-01-16T08:05:05;95110.69;;;5.13
32039;BMP280;18549;42.286;22.688;2024-01-16T08:07:33;95118.78;;;5.15
32039;BMP280;18549;42.286;22.688;2024-01-16T08:10:02;95122.81;;;5.16
32039;BMP280;18549;42.286;22.688;2024-01-16T08:12:29;95135.25;;;5.13
32039;BMP280;18549;42.286;22.688;2024-01-16T08:14:57;95147.47;;;5.14
32039;BMP280;18549;42.286;22.688;2024-01-16T08:17:25;95154.91;;;5.13
32039;BMP280;18549;42.286;22.688;2024-01-16T08:19:53;95162.44;;;5.10
32039;BMP280;18549;42.286;22.688;2024-01-16T08:22:22;95156.62;;;5.11
32039;BMP280;18549;42.286;22.688;2024-01-16T08:24:50;95175.66;;;5.07
32039;BMP280;18549;42.286;22.688;2024-01-16T08:27:16;95186.19;;;5.09
32039;BMP280;18549;42.286;22.688;2024-01-16T08:29:44;95191.91;;;5.10
32039;BMP280;18549;42.286;22.688;2024-01-16T08:32:13;95194.19;;;5.13
32039;BMP280;18549;42.286;22.688;2024-01-16T08:34:40;95216.88;;;5.18
32039;BMP280;18549;42.286;22.688;2024-01-16T08:37:07;95220.72;;;5.23
32039;BMP280;18549;42.286;22.688;2024-01-16T08:39:37;95214.19;;;5.22
32039;BMP280;18549;42.286;22.688;2024-01-16T08:42:05;95215.81;;;5.23
32039;BMP280;18549;42.286;22.688;2024-01-16T08:44:32;95223.75;;;5.28
32039;BMP280;18549;42.286;22.688;2024-01-16T08:47:01;95228.34;;;5.34
32039;BMP280;18549;42.286;22.688;2024-01-16T08:49:31;95238.09;;;5.35
32039;BMP280;18549;42.286;22.688;2024-01-16T08:52:00;95225.66;;;5.38
32039;BMP280;18549;42.286;22.688;2024-01-16T08:54:29;95233.75;;;5.40
32039;BMP280;18549;42.286;22.688;2024-01-16T08:57:01;95241.84;;;5.42
32039;BMP280;18549;42.286;22.688;2024-01-16T08:59:27;95241.69;;;5.45
32039;BMP280;18549;42.286;22.688;2024-01-16T09:02:00;95240.09;;;5.44
32039;BMP280;18549;42.286;22.688;2024-01-16T09:04:28;95246.47;;;5.48
32039;BMP280;18549;42.286;22.688;2024-01-16T09:06:59;95248.75;;;5.51
32039;BMP280;18549;42.286;22.688;2024-01-16T09:09:25;95255.97;;;5.54
32039;BMP280;18549;42.286;22.688;2024-01-16T09:11:53;95257.44;;;5.58
32039;BMP280;18549;42.286;22.688;2024-01-16T09:14:24;95264.88;;;5.57
32039;BMP280;18549;42.286;22.688;2024-01-16T09:16:52;95262.63;;;5.52
32039;BMP280;18549;42.286;22.688;2024-01-16T09:19:20;95257.59;;;5.55
32039;BMP280;18549;42.286;22.688;2024-01-16T09:21:46;95252.78;;;5.52
32039;BMP280;18549;42.286;22.688;2024-01-16T09:24:15;95262.19;;;5.61
32039;BMP280;18549;42.286;22.688;2024-01-16T09:26:43;95260.06;;;5.70
32039;BMP280;18549;42.286;22.688;2024-01-16T09:29:10;95249.56;;;5.84
32039;BMP280;18549;42.286;22.688;2024-01-16T09:31:39;95252.44;;;5.92
32039;BMP280;18549;42.286;22.688;2024-01-16T09:34:09;95257.03;;;5.97
32039;BMP280;18549;42.286;22.688;2024-01-16T09:36:40;95264.12;;;6.03
32039;BMP280;18549;42.286;22.688;2024-01-16T09:39:07;95259.19;;;6.03
32039;BMP280;18549;42.286;22.688;2024-01-16T09:41:36;95256.25;;;6.12
32039;BMP280;18549;42.286;22.688;2024-01-16T09:44:06;95257.53;;;6.19
32039;BMP280;18549;42.286;22.688;2024-01-16T09:46:34;95254.34;;;6.17
32039;BMP280;18549;42.286;22.688;2024-01-16T09:49:03;95252.13;;;6.28
32039;BMP280;18549;42.286;22.688;2024-01-16T09:51:32;95244.66;;;6.29
32039;BMP280;18549;42.286;22.688;2024-01-16T09:54:00;95245.37;;;6.31
32039;BMP280;18549;42.286;22.688;2024-01-16T09:56:32;95251.38;;;6.41
32039;BMP280;18549;42.286;22.688;2024-01-16T09:59:06;95247.13;;;6.45
32039;BMP280;18549;42.286;22.688;2024-01-16T10:01:33;95245.84;;;6.38
32039;BMP280;18549;42.286;22.688;2024-01-16T10:04:03;95256.59;;;6.37
32039;BMP280;18549;42.286;22.688;2024-01-16T10:06:33;95258.88;;;6.40
32039;BMP280;18549;42.286;22.688;2024-01-16T10:09:03;95257.50;;;6.34
32039;BMP280;18549;42.286;22.688;2024-01-16T10:11:30;95268.47;;;6.29
32039;BMP280;18549;42.286;22.688;2024-01-16T10:13:58;95258.81;;;6.26
32039;BMP280;18549;42.286;22.688;2024-01-16T10:16:56;95251.97;;;6.31
32039;BMP280;18549;42.286;22.688;2024-01-16T10:19:29;95241.88;;;6.35
32039;BMP280;18549;42.286;22.688;2024-01-16T10:22:01;95241.41;;;6.44
32039;BMP280;18549;42.286;22.688;2024-01-16T10:24:28;95248.59;;;6.62
32039;BMP280;18549;42.286;22.688;2024-01-16T10:26:59;95249.06;;;6.98
32039;BMP280;18549;42.286;22.688;2024-01-16T10:29:29;95252.78;;;7.19
32039;BMP280;18549;42.286;22.688;2024-01-16T10:31:57;95251.22;;;7.18
32039;BMP280;18549;42.286;22.688;2024-01-16T10:34:24;95250.69;;;7.13
32039;BMP280;18549;42.286;22.688;2024-01-16T10:37:08;95259.66;;;7.14
32039;BMP280;18549;42.286;22.688;2024-01-16T10:39:35;95262.69;;;7.32
32039;BMP280;18549;42.286;22.688;2024-01-16T10:42:04;95260.47;;;7.28
32039;BMP280;18549;42.286;22.688;2024-01-16T10:44:33;95261.75;;;7.49
32039;BMP280;18549;42.286;22.688;2024-01-16T10:47:10;95262.72;;;7.60
32039;BMP280;18549;42.286;22.688;2024-01-16T10:49:39;95252.50;;;7.66
32039;BMP280;18549;42.286;22.688;2024-01-16T10:52:10;95251.06;;;7.89
32039;BMP280;18549;42.286;22.688;2024-01-16T10:54:41;95251.06;;;8.17
32039;BMP280;18549;42.286;22.688;2024-01-16T10:57:11;95239.84;;;8.25
32039;BMP280;18549;42.286;22.688;2024-01-16T10:59:48;95248.62;;;8.43
32039;BMP280;18549;42.286;22.688;2024-01-16T11:02:20;95242.78;;;8.70
32039;BMP280;18549;42.286;22.688;2024-01-16T11:04:47;95248.78;;;8.92
32039;BMP280;18549;42.286;22.688;2024-01-16T11:07:16;95240.09;;;8.99
32039;BMP280;18549;42.286;22.688;2024-01-16T11:09:45;95232.16;;;8.82
32039;BMP280;18549;42.286;22.688;2024-01-16T11:12:13;95243.28;;;8.75
32039;BMP280;18549;42.286;22.688;2024-01-16T11:14:45;95255.19;;;8.56
32039;BMP280;18549;42.286;22.688;2024-01-16T11:17:19;95249.41;;;8.44
32039;BMP280;18549;42.286;22.688;2024-01-16T11:19:57;95257.72;;;8.43
32039;BMP280;18549;42.286;22.688;2024-01-16T11:22:27;95251.63;;;8.34
32039;BMP280;18549;42.286;22.688;2024-01-16T11:25:13;95252.31;;;8.24
32039;BMP280;18549;42.286;22.688;2024-01-16T11:27:41;95253.97;;;8.10
32039;BMP280;18549;42.286;22.688;2024-01-16T11:30:10;95258.28;;;8.06
32039;BMP280;18549;42.286;22.688;2024-01-16T11:32:47;95254.41;;;8.02
32039;BMP280;18549;42.286;22.688;2024-01-16T11:35:31;95258.38;;;8.05
32039;BMP280;18549;42.286;22.688;2024-01-16T11:38:10;95265.34;;;7.98
32039;BMP280;18549;42.286;22.688;2024-01-16T11:40:46;95252.41;;;7.95
32039;BMP280;18549;42.286;22.688;2024-01-16T11:43:37;95253.91;;;7.84
32039;BMP280;18549;42.286;22.688;2024-01-16T11:46:05;95264.47;;;7.86
32039;BMP280;18549;42.286;22.688;2024-01-16T11:48:33;95262.88;;;7.85
32039;BMP280;18549;42.286;22.688;2024-01-16T11:50:59;95261.50;;;7.81
32039;BMP280;18549;42.286;22.688;2024-01-16T11:53:37;95264.03;;;7.79
32039;BMP280;18549;42.286;22.688;2024-01-16T12:02:21;95275.91;;;7.87
32039;BMP280;18549;42.286;22.688;2024-01-16T12:04:53;95268.53;;;7.87
32039;BMP280;18549;42.286;22.688;2024-01-16T12:07:22;95271.44;;;7.93
32039;BMP280;18549;42.286;22.688;2024-01-16T12:09:51;95275.03;;;8.01
32039;BMP280;18549;42.286;22.688;2024-01-16T12:12:18;95261.28;;;7.97
32039;BMP280;18549;42.286;22.688;2024-01-16T12:14:53;95262.16;;;7.96
32039;BMP280;18549;42.286;22.688;2024-01-16T12:17:24;95265.72;;;7.92
32039;BMP280;18549;42.286;22.688;2024-01-16T12:19:56;95263.84;;;7.82
32039;BMP280;18549;42.286;22.688;2024-01-16T12:22:23;95257.88;;;7.72
32039;BMP280;18549;42.286;22.688;2024-01-16T12:24:57;95268.91;;;7.67
32039;BMP280;18549;42.286;22.688;2024-01-16T12:27:28;95273.66;;;7.70
32039;BMP280;18549;42.286;22.688;2024-01-16T12:30:08;95275.94;;;7.73
32039;BMP280;18549;42.286;22.688;2024-01-16T12:32:37;95265.97;;;7.74
32039;BMP280;18549;42.286;22.688;2024-01-16T12:35:05;95263.41;;;7.76
32039;BMP280;18549;42.286;22.688;2024-01-16T12:37:31;95262.72;;;7.74
32039;BMP280;18549;42.286;22.688;2024-01-16T12:40:01;95266.44;;;7.67
32039;BMP280;18549;42.286;22.688;2024-01-16T12:42:29;95250.91;;;7.65
32039;BMP280;18549;42.286;22.688;2024-01-16T12:44:57;95266.06;;;7.59
32039;BMP280;18549;42.286;22.688;2024-01-16T12:47:24;95257.41;;;7.52
32039;BMP280;18549;42.286;22.688;2024-01-16T12:49:51;95260.31;;;7.45
32039;BMP280;18549;42.286;22.688;2024-01-16T12:52:20;95263.91;;;7.39
32039;BMP280;18549;42.286;22.688;2024-01-16T12:54:48;95270.63;;;7.37
32039;BMP280;18549;42.286;22.688;2024-01-16T12:57:21;95268.16;;;7.37
32039;BMP280;18549;42.286;22.688;2024-01-16T12:59:49;95278.72;;;7.39
32039;BMP280;18549;42.286;22.688;2024-01-16T13:02:22;95278.38;;;7.45
32039;BMP280;18549;42.286;22.688;2024-01-16T13:04:56;95273.44;;;7.45
32039;BMP280;18549;42.286;22.688;2024-01-16T13:07:24;95270.72;;;7.50
32039;BMP280;18549;42.286;22.688;2024-01-16T13:10:10;95281.75;;;7.58
32039;BMP280;18549;42.286;22.688;2024-01-16T13:12:44;95281.47;;;7.62
32039;BMP280;18549;42.286;22.688;2024-01-16T13:15:11;95278.19;;;7.62
32039;BMP280;18549;42.286;22.688;2024-01-16T13:17:43;95274.34;;;7.58
32039;BMP280;18549;42.286;22.688;2024-01-16T13:20:11;95273.44;;;7.59
32039;BMP280;18549;42.286;22.688;2024-01-16T13:22:40;95266.84;;;7.59
32039;BMP280;18549;42.286;22.688;2024-01-16T13:25:07;95269.50;;;7.56
32039;BMP280;18549;42.286;22.688;2024-01-16T13:27:36;95287.38;;;7.60
32039;BMP280;18549;42.286;22.688;2024-01-16T13:30:10;95287.22;;;7.63
32039;BMP280;18549;42.286;22.688;2024-01-16T13:32:38;95290.19;;;7.68
32039;BMP280;18549;42.286;22.688;2024-01-16T13:35:05;95297.41;;;7.71
32039;BMP280;18549;42.286;22.688;2024-01-16T13:37:35;95294.94;;;7.71
32039;BMP280;18549;42.286;22.688;2024-01-16T13:40:04;95299.09;;;7.70
32039;BMP280;18549;42.286;22.688;2024-01-16T13:42:34;95303.25;;;7.70
32039;BMP280;18549;42.286;22.688;2024-01-16T13:45:01;95305.06;;;7.66
32039;BMP280;18549;42.286;22.688;2024-01-16T13:47:30;95302.59;;;7.66
32039;BMP280;18549;42.286;22.688;2024-01-16T13:49:58;95308.34;;;7.67
32039;BMP280;18549;42.286;22.688;2024-01-16T13:52:25;95313.09;;;7.70
32039;BMP280;18549;42.286;22.688;2024-01-16T13:54:58;95302.78;;;7.63
32039;BMP280;18549;42.286;22.688;2024-01-16T13:57:24;95311.69;;;7.66
32039;BMP280;18549;42.286;22.688;2024-01-16T13:59:51;95308.19;;;7.70
32039;BMP280;18549;42.286;22.688;2024-01-16T14:02:18;95311.34;;;7.72
32039;BMP280;18549;42.286;22.688;2024-01-16T14:04:49;95312.13;;;7.72
32039;BMP280;18549;42.286;22.688;2024-01-16T14:07:15;95314.78;;;7.69
32039;BMP280;18549;42.286;22.688;2024-01-16T14:09:45;95320.59;;;7.68
32039;BMP280;18549;42.286;22.688;2024-01-16T14:12:15;95326.31;;;7.69
32039;BMP280;18549;42.286;22.688;2024-01-16T14:14:45;95328.44;;;7.61
32039;BMP280;18549;42.286;22.688;2024-01-16T14:17:14;95329.31;;;7.60
32039;BMP280;18549;42.286;22.688;2024-01-16T14:19:41;95336.00;;;7.58
32039;BMP280;18549;42.286;22.688;2024-01-16T14:22:10;95336.72;;;7.60
32039;BMP280;18549;42.286;22.688;2024-01-16T14:24:37;95340.03;;;7.59
32039;BMP280;18549;42.286;22.688;2024-01-16T14:27:04;95330.09;;;7.60
32039;BMP280;18549;42.286;22.688;2024-01-16T14:29:32;95341.66;;;7.60